Saturday, November 18, 2017, 6:17 PM EST
Back to Local

KPOU, Poughkeepsie Dutchess Cty

Location: Wappingers Falls, NY, United States Lat: 41.633
Local Time: 6:17 PM EST (23:17 GMT) Lon: -73.883
Time Zone: US/Eastern Elev: 167 ft

Show me the last for .
Show Decoded

2017-11-18 17:53 METAR KPOU 182253Z 13004KT 5SM RA BR SCT039 BKN048 OVC055 06/04 A2961 RMK AO2
                 SLP026 P0006 T00560039 =
2017-11-18 16:53 METAR KPOU 182153Z 15003KT 9SM -RA OVC039 06/03 A2964 RMK AO2 RAB2055 SLP034
                 P0002 T00560033 =
2017-11-18 15:53 METAR KPOU 182053Z 00000KT 7SM FEW036 OVC055 06/02 A2965 RMK AO2 RAB41E52 SLP039
                 P0000 60003 T00560022 56029 =
2017-11-18 14:53 METAR KPOU 181953Z 17003KT 10SM BKN050 OVC100 06/02 A2968 RMK AO2 RAE06 SLP048
                 P0000 T00560017 =
2017-11-18 13:53 METAR KPOU 181853Z VRB03KT 8SM -RA SCT080 OVC095 06/01 A2970 RMK AO2 SLP057
                 P0003 T00560011 =
2017-11-18 12:53 METAR KPOU 181753Z 16009G17KT 8SM -RA FEW065 BKN080 OVC120 06/M02 A2974 RMK AO2
                 RAB44 SLP068 P0000 60000 T00611017 10067 21056 56054 =
2017-11-18 11:53 METAR KPOU 181653Z 18007G15KT 150V220 10SM CLR 06/M03 A2978 RMK AO2 SLP084
                 T00611033 =
2017-11-18 10:53 METAR KPOU 181553Z 14004KT 10SM FEW070 FEW110 03/M03 A2985 RMK AO2 UPB31E40
                 SLP106 P0000 T00331033 =
2017-11-18 09:53 METAR KPOU 181453Z 10003KT 10SM CLR 01/M04 A2990 RMK AO2 PRESFR SLP123 T00061039
                 58019 =
2017-11-18 08:53 METAR KPOU 181353Z 00000KT 10SM CLR M02/M06 A2993 RMK AO2 SLP134 T10221056 =
2017-11-18 07:53 METAR KPOU 181253Z 00000KT 10SM CLR M04/M07 A2993 RMK AO2 SLP135 T10391072 =
2017-11-18 06:53 METAR KPOU 181153Z 00000KT 10SM CLR M06/M08 A2995 RMK AO2 SLP142 T10561083 11044
                 21067 58016 =
2017-11-18 05:53 METAR KPOU 181053Z 00000KT 10SM CLR M07/M09 A2998 RMK AO2 SLP151 T10671089 =
2017-11-18 04:53 METAR KPOU 180953Z 00000KT 10SM CLR M06/M09 A3000 RMK AO2 SLP156 T10611089 =
2017-11-18 03:53 METAR KPOU 180853Z 00000KT 10SM CLR M06/M08 A3000 RMK AO2 SLP158 T10611083 56018
                 =
2017-11-18 02:53 METAR KPOU 180753Z 00000KT 10SM CLR M06/M08 A3001 RMK AO2 SLP162 T10561083 =
2017-11-18 01:53 METAR KPOU 180653Z 00000KT 10SM CLR M05/M08 A3003 RMK AO2 SLP167 T10501083 =
2017-11-18 00:53 METAR KPOU 180553Z 00000KT 10SM CLR M04/M08 A3005 RMK AO2 SLP175 T10441078 11006
                 21056 56005 =
2017-11-17 23:53 METAR KPOU 180453Z 00000KT 10SM CLR M04/M08 A3006 RMK AO2 SLP178 T10441078
                 400891056 =
2017-11-17 22:53 METAR KPOU 180353Z 00000KT 10SM CLR M04/M08 A3006 RMK AO2 SLP177 T10441078 =
2017-11-17 21:53 METAR KPOU 180253Z 00000KT 10SM CLR M03/M08 A3007 RMK AO2 SLP180 T10281078 55002
                 =
2017-11-17 20:53 METAR KPOU 180153Z 00000KT 10SM CLR M02/M07 A3006 RMK AO2 SLP177 T10221072 =
2017-11-17 19:53 METAR KPOU 180053Z 02004KT 10SM CLR M02/M07 A3008 RMK AO2 SLP184 T10171072 =
2017-11-17 18:53 METAR KPOU 172353Z 00000KT 10SM CLR M01/M07 A3008 RMK AO2 SLP182 T10111072 10089
                 21011 51007 =

Support USWX by starting your Amazon purchase here.